M I D A S
Marine Information and Data Acquisition System
Tripno 2133 of the Zeeleeuw from 2011-02-24 08:26:42 to 2011-02-24 17:00:55
Back to CruiseResearch ActivitiesStationsMapUnderway DataData graphs

EquipmentUnitsComment
TimeDGPSUTC
LatitudeDGPSDM.mWGS84
LongitudeDGPSDM.mWGS84
HeadingGyrodeg 
SOGDGPSknotsSpeed over ground
COGDGPSdegCourse over ground
DepthEcho soundermeters200 kHz
Missing or incorrect values are displayed as -999
Navigation data collected by the RV Zeeleeuw from 2011-02-24 06:56:12 to 2011-02-24 17:01:52
                                                                                    Next 1000 lines
Time Latitude Longitude Heading SOG COG Depth
2011-02-24 06:56:22 51°13.664 2°55.96 128.1 0.1 249 -999
2011-02-24 06:56:27 51°13.664 2°55.96 128.1 0.1 188 -999
2011-02-24 06:56:32 51°13.664 2°55.96 128.1 -999 353 -999
2011-02-24 06:56:37 51°13.664 2°55.96 128.1 -999 224 -999
2011-02-24 06:56:42 51°13.664 2°55.96 128.1 0.1 137 -999
2011-02-24 06:56:47 51°13.664 2°55.96 128.1 -999 270 -999
2011-02-24 06:56:51 51°13.664 2°55.96 128.1 0.1 303 -999
2011-02-24 06:56:57 51°13.664 2°55.96 128.1 -999 294 -999
2011-02-24 06:57:02 51°13.664 2°55.96 128.3 -999 358 -999
2011-02-24 06:57:07 51°13.664 2°55.96 128.3 -999 346 -999
2011-02-24 06:57:12 51°13.664 2°55.96 128.3 0.1 347 -999
2011-02-24 06:57:16 51°13.664 2°55.96 128.3 -999 330 -999
2011-02-24 06:57:22 51°13.664 2°55.96 128.3 -999 357 -999
2011-02-24 06:57:27 51°13.664 2°55.96 128.3 0.1 347 -999
2011-02-24 06:57:32 51°13.664 2°55.96 128.3 0.1 330 -999
2011-02-24 06:57:37 51°13.664 2°55.96 128.3 -999 21 -999
2011-02-24 06:57:42 51°13.663 2°55.96 128.3 -999 132 -999
2011-02-24 06:57:47 51°13.663 2°55.96 128.3 0.1 123 -999
2011-02-24 06:57:52 51°13.664 2°55.96 128.3 -999 354 -999
2011-02-24 06:57:57 51°13.664 2°55.96 128.3 -999 332 -999
2011-02-24 06:58:02 51°13.664 2°55.96 128.3 0.1 258 -999
2011-02-24 06:58:07 51°13.664 2°55.96 128.1 0.1 158 -999
2011-02-24 06:58:12 51°13.664 2°55.96 128.1 0.1 229 -999
2011-02-24 06:58:17 51°13.664 2°55.96 128.1 0.2 163 -999
2011-02-24 06:58:22 51°13.664 2°55.96 128.1 0.1 130 -999
2011-02-24 06:58:27 51°13.664 2°55.96 128.2 -999 356 -999
2011-02-24 06:58:32 51°13.663 2°55.96 128.3 -999 229 -999
2011-02-24 06:58:37 51°13.663 2°55.961 128.4 -999 199 -999
2011-02-24 06:58:42 51°13.663 2°55.96 128.4 -999 300 -999
2011-02-24 06:58:47 51°13.663 2°55.961 128.4 -999 63 -999
2011-02-24 06:58:51 51°13.662 2°55.961 128.3 0.1 156 -999
2011-02-24 06:58:57 51°13.662 2°55.961 128.3 0.1 192 -999
2011-02-24 06:59:02 51°13.662 2°55.961 128.3 -999 310 -999
2011-02-24 06:59:07 51°13.662 2°55.961 128.3 0.1 339 -999
2011-02-24 06:59:12 51°13.662 2°55.961 128.3 0.1 4 -999
2011-02-24 06:59:17 51°13.662 2°55.961 128.3 0.1 39 -999
2011-02-24 06:59:22 51°13.662 2°55.961 128.3 0.1 100 -999
2011-02-24 06:59:27 51°13.662 2°55.961 128.3 -999 253 -999
2011-02-24 06:59:32 51°13.662 2°55.961 128.3 0.1 255 -999
2011-02-24 06:59:37 51°13.662 2°55.961 128.3 0.1 261 -999
2011-02-24 06:59:42 51°13.662 2°55.961 128.1 0.1 271 -999
2011-02-24 06:59:47 51°13.661 2°55.961 128 -999 204 -999
2011-02-24 06:59:52 51°13.662 2°55.961 127.9 0.1 43 -999
2011-02-24 06:59:57 51°13.662 2°55.961 127.8 0.2 9 -999
2011-02-24 07:00:02 51°13.662 2°55.961 127.8 0.1 325 -999
2011-02-24 07:00:07 51°13.662 2°55.961 127.7 -999 8 -999
2011-02-24 07:00:12 51°13.662 2°55.961 127.6 0.1 351 -999
2011-02-24 07:00:17 51°13.662 2°55.961 127.5 -999 311 -999
2011-02-24 07:00:22 51°13.662 2°55.962 127.4 0.1 86 -999
2011-02-24 07:00:27 51°13.662 2°55.962 127.4 0.1 103 -999
2011-02-24 07:00:32 51°13.662 2°55.962 127.4 0.1 98 -999
2011-02-24 07:00:37 51°13.662 2°55.962 127.4 0.1 62 -999
2011-02-24 07:00:41 51°13.662 2°55.962 127.4 -999 70 -999
2011-02-24 07:00:47 51°13.662 2°55.962 127.4 -999 120 -999
2011-02-24 07:00:52 51°13.662 2°55.962 127.4 -999 286 -999
2011-02-24 07:00:57 51°13.662 2°55.961 127.5 0.1 272 -999
2011-02-24 07:01:01 51°13.662 2°55.961 127.6 0.1 272 -999
2011-02-24 07:01:07 51°13.662 2°55.962 127.8 -999 173 -999
2011-02-24 07:01:12 51°13.662 2°55.962 127.9 -999 86 -999
2011-02-24 07:01:17 51°13.662 2°55.962 128 -999 73 -999
2011-02-24 07:01:22 51°13.662 2°55.962 128.1 -999 266 -999
2011-02-24 07:01:27 51°13.662 2°55.962 128.1 0.1 291 -999
2011-02-24 07:01:32 51°13.662 2°55.961 128.1 0.1 274 -999
2011-02-24 07:01:37 51°13.662 2°55.962 128.1 0.1 237 -999
2011-02-24 07:01:42 51°13.662 2°55.962 128.1 -999 217 -999
2011-02-24 07:01:47 51°13.662 2°55.962 128 0.1 188 -999
2011-02-24 07:01:52 51°13.662 2°55.962 127.9 -999 97 -999
2011-02-24 07:01:57 51°13.662 2°55.962 127.8 -999 339 -999
2011-02-24 07:02:02 51°13.662 2°55.962 127.7 -999 75 -999
2011-02-24 07:02:07 51°13.662 2°55.962 127.6 0.1 14 -999
2011-02-24 07:02:12 51°13.662 2°55.961 127.4 0.1 312 -999
2011-02-24 07:02:17 51°13.662 2°55.961 127.3 0.1 317 -999
2011-02-24 07:02:22 51°13.662 2°55.961 127.2 0.1 231 -999
2011-02-24 07:02:27 51°13.662 2°55.961 127.1 0.1 281 -999
2011-02-24 07:02:32 51°13.662 2°55.961 127.1 -999 269 -999
2011-02-24 07:02:37 51°13.662 2°55.961 127.1 0.1 299 -999
2011-02-24 07:02:42 51°13.662 2°55.961 127 0.1 266 -999
2011-02-24 07:02:47 51°13.662 2°55.961 126.9 0.1 246 -999
2011-02-24 07:02:52 51°13.662 2°55.961 126.8 0.1 261 -999
2011-02-24 07:02:57 51°13.662 2°55.961 126.7 0.1 195 -999
2011-02-24 07:03:02 51°13.663 2°55.961 126.5 0.1 223 -999
2011-02-24 07:03:07 51°13.663 2°55.961 126.5 0.1 299 -999
2011-02-24 07:03:12 51°13.663 2°55.961 126.4 0.1 237 -999
2011-02-24 07:03:17 51°13.663 2°55.961 126.4 0.1 1 -999
2011-02-24 07:03:22 51°13.663 2°55.961 126.4 0.1 19 -999
2011-02-24 07:03:27 51°13.663 2°55.961 126.6 -999 126 -999
2011-02-24 07:03:32 51°13.663 2°55.961 126.8 0.1 72 -999
2011-02-24 07:03:36 51°13.663 2°55.961 126.9 -999 177 -999
2011-02-24 07:03:41 51°13.663 2°55.961 127.1 -999 2 -999
2011-02-24 07:03:47 51°13.662 2°55.961 127.3 0.1 198 -999
2011-02-24 07:03:52 51°13.663 2°55.961 127.3 -999 88 -999
2011-02-24 07:03:57 51°13.663 2°55.961 127.4 0.1 11 -999
2011-02-24 07:04:02 51°13.663 2°55.96 127.4 0.1 323 -999
2011-02-24 07:04:07 51°13.663 2°55.961 127.4 0.1 259 -999
2011-02-24 07:04:12 51°13.663 2°55.961 127.4 -999 152 -999
2011-02-24 07:04:17 51°13.663 2°55.961 127.4 0.1 82 -999
2011-02-24 07:04:22 51°13.663 2°55.961 127.4 -999 286 -999
2011-02-24 07:04:27 51°13.662 2°55.961 127.5 0.1 188 -999
2011-02-24 07:04:32 51°13.662 2°55.961 127.6 0.2 165 -999
2011-02-24 07:04:37 51°13.662 2°55.961 127.7 0.1 158 -999
2011-02-24 07:04:42 51°13.663 2°55.961 127.8 -999 254 -999
2011-02-24 07:04:47 51°13.663 2°55.961 127.9 0.1 28 -999
2011-02-24 07:04:52 51°13.663 2°55.961 128 0.1 156 -999
2011-02-24 07:04:57 51°13.663 2°55.961 128 -999 345 -999
2011-02-24 07:05:02 51°13.663 2°55.961 128.1 -999 189 -999
2011-02-24 07:05:07 51°13.662 2°55.961 128.1 0.1 187 -999
2011-02-24 07:05:12 51°13.663 2°55.961 128.1 0.1 342 -999
2011-02-24 07:05:17 51°13.663 2°55.961 128.1 0.2 348 -999
2011-02-24 07:05:22 51°13.663 2°55.961 128.1 0.1 331 -999
2011-02-24 07:05:27 51°13.663 2°55.961 128.1 0.1 229 -999
2011-02-24 07:05:32 51°13.663 2°55.961 128.1 0.1 206 -999
2011-02-24 07:05:37 51°13.663 2°55.961 128.1 0.1 326 -999
2011-02-24 07:05:41 51°13.663 2°55.961 128.1 0.1 354 -999
2011-02-24 07:05:47 51°13.663 2°55.961 128.1 -999 157 -999
2011-02-24 07:05:52 51°13.663 2°55.961 128.1 -999 242 -999
2011-02-24 07:05:57 51°13.663 2°55.962 128.1 -999 118 -999
2011-02-24 07:06:02 51°13.663 2°55.962 128.3 0.1 128 -999
2011-02-24 07:06:07 51°13.663 2°55.961 128.3 0.1 316 -999
2011-02-24 07:06:12 51°13.663 2°55.961 128.3 -999 135 -999
2011-02-24 07:06:17 51°13.663 2°55.961 128.3 -999 199 -999
2011-02-24 07:06:22 51°13.663 2°55.961 128.3 0.1 14 -999
2011-02-24 07:06:27 51°13.663 2°55.961 128.2 0.1 109 -999
2011-02-24 07:06:32 51°13.663 2°55.961 128.1 0.1 103 -999
2011-02-24 07:06:37 51°13.663 2°55.961 128.1 0.1 82 -999
2011-02-24 07:06:42 51°13.663 2°55.961 128.1 -999 129 -999
2011-02-24 07:06:47 51°13.663 2°55.961 128.1 -999 90 -999
2011-02-24 07:06:52 51°13.663 2°55.961 128.1 0.2 352 -999
2011-02-24 07:06:57 51°13.663 2°55.961 128.1 0.1 350 -999
2011-02-24 07:07:02 51°13.663 2°55.961 128.1 -999 13 -999
2011-02-24 07:07:07 51°13.662 2°55.961 128.1 0.1 164 -999
2011-02-24 07:07:12 51°13.662 2°55.961 128.2 0.1 178 -999
2011-02-24 07:07:17 51°13.662 2°55.961 128.3 0.1 185 -999
2011-02-24 07:07:22 51°13.663 2°55.961 128.3 -999 107 -999
2011-02-24 07:07:27 51°13.663 2°55.961 128.3 0.1 14 -999
2011-02-24 07:07:32 51°13.663 2°55.961 128.3 0.1 319 -999
2011-02-24 07:07:37 51°13.663 2°55.961 128.3 0.1 313 -999
2011-02-24 07:07:42 51°13.663 2°55.961 128.3 -999 124 -999
2011-02-24 07:07:47 51°13.663 2°55.961 128.1 0.1 113 -999
2011-02-24 07:07:52 51°13.663 2°55.961 128.1 0.1 264 -999
2011-02-24 07:07:56 51°13.663 2°55.961 128.1 0.1 206 -999
2011-02-24 07:08:01 51°13.663 2°55.961 128 -999 219 -999
2011-02-24 07:08:06 51°13.663 2°55.961 127.9 0.1 272 -999
2011-02-24 07:08:12 51°13.663 2°55.961 127.8 -999 247 -999
2011-02-24 07:08:17 51°13.663 2°55.961 127.8 -999 87 -999
2011-02-24 07:08:22 51°13.663 2°55.961 127.7 0.1 231 -999
2011-02-24 07:08:27 51°13.662 2°55.961 127.6 0.1 229 -999
2011-02-24 07:08:32 51°13.662 2°55.961 127.4 0.1 244 -999
2011-02-24 07:08:37 51°13.663 2°55.961 127.3 0.1 330 -999
2011-02-24 07:08:42 51°13.663 2°55.961 127.3 0.2 341 -999
2011-02-24 07:08:46 51°13.663 2°55.961 127.2 0.2 344 -999
2011-02-24 07:08:51 51°13.663 2°55.961 127.1 0.1 329 -999
2011-02-24 07:08:57 51°13.662 2°55.961 127.1 -999 231 -999
2011-02-24 07:09:02 51°13.662 2°55.961 127.1 0.1 265 -999
2011-02-24 07:09:07 51°13.662 2°55.961 127 0.1 242 -999
2011-02-24 07:09:12 51°13.662 2°55.961 127 0.1 176 -999
2011-02-24 07:09:17 51°13.662 2°55.961 127 0.1 323 -999
2011-02-24 07:09:22 51°13.662 2°55.962 127 -999 76 -999
2011-02-24 07:09:27 51°13.662 2°55.961 127 0.1 346 -999
2011-02-24 07:09:32 51°13.662 2°55.962 126.9 -999 98 -999
2011-02-24 07:09:37 51°13.662 2°55.962 126.9 -999 50 -999
2011-02-24 07:09:42 51°13.662 2°55.961 126.8 -999 250 -999
2011-02-24 07:09:47 51°13.662 2°55.962 126.8 -999 79 -999
2011-02-24 07:09:52 51°13.662 2°55.961 126.8 -999 313 -999
2011-02-24 07:09:57 51°13.662 2°55.961 126.8 0.1 286 -999
2011-02-24 07:10:02 51°13.662 2°55.961 126.7 0.1 211 -999
2011-02-24 07:10:07 51°13.662 2°55.962 126.7 0.1 173 -999
2011-02-24 07:10:12 51°13.662 2°55.962 126.7 0.1 196 -999
2011-02-24 07:10:17 51°13.662 2°55.961 126.6 -999 254 -999
2011-02-24 07:10:22 51°13.662 2°55.962 126.5 0.1 347 -999
2011-02-24 07:10:26 51°13.662 2°55.962 126.4 0.1 9 -999
2011-02-24 07:10:31 51°13.662 2°55.962 126.4 0.1 1 -999
2011-02-24 07:10:36 51°13.662 2°55.962 126.3 0.1 341 -999
2011-02-24 07:10:41 51°13.662 2°55.961 126.3 0.1 317 -999
2011-02-24 07:10:47 51°13.662 2°55.961 126.3 0.1 334 -999
2011-02-24 07:10:52 51°13.662 2°55.962 126.3 -999 234 -999
2011-02-24 07:10:57 51°13.662 2°55.962 126.4 0.1 14 -999
2011-02-24 07:11:02 51°13.662 2°55.961 126.5 0.1 264 -999
2011-02-24 07:11:07 51°13.662 2°55.961 126.9 0.1 280 -999
2011-02-24 07:11:12 51°13.662 2°55.962 127.1 0.1 202 -999
2011-02-24 07:11:17 51°13.662 2°55.962 127.4 0.1 61 -999
2011-02-24 07:11:22 51°13.662 2°55.962 127.6 -999 26 -999
2011-02-24 07:11:27 51°13.662 2°55.962 127.6 0.1 352 -999
2011-02-24 07:11:32 51°13.662 2°55.962 127.6 0.1 347 -999
2011-02-24 07:11:37 51°13.662 2°55.962 127.6 0.1 65 -999
2011-02-24 07:11:42 51°13.662 2°55.962 127.6 -999 136 -999
2011-02-24 07:11:47 51°13.662 2°55.962 127.6 0.1 23 -999
2011-02-24 07:11:52 51°13.662 2°55.962 127.7 0.1 226 -999
2011-02-24 07:11:57 51°13.662 2°55.961 127.7 0.1 292 -999
2011-02-24 07:12:02 51°13.662 2°55.961 127.7 0.1 274 -999
2011-02-24 07:12:07 51°13.662 2°55.961 127.7 0.1 317 -999
2011-02-24 07:12:12 51°13.662 2°55.961 127.7 0.1 306 -999
2011-02-24 07:12:17 51°13.662 2°55.962 127.7 0.1 6 -999
2011-02-24 07:12:22 51°13.661 2°55.962 127.7 0.1 176 -999
2011-02-24 07:12:27 51°13.662 2°55.961 127.8 -999 319 -999
2011-02-24 07:12:32 51°13.662 2°55.961 127.8 -999 257 -999
2011-02-24 07:12:37 51°13.662 2°55.961 127.9 -999 9 -999
2011-02-24 07:12:42 51°13.662 2°55.961 128 -999 259 -999
2011-02-24 07:12:47 51°13.662 2°55.961 128 -999 235 -999
2011-02-24 07:12:52 51°13.662 2°55.961 128 -999 322 -999
2011-02-24 07:12:57 51°13.662 2°55.961 128 -999 128 -999
2011-02-24 07:13:01 51°13.662 2°55.961 128 0.1 149 -999
2011-02-24 07:13:07 51°13.662 2°55.961 128.1 -999 128 -999
2011-02-24 07:13:11 51°13.662 2°55.961 128.3 0.1 273 -999
2011-02-24 07:13:16 51°13.662 2°55.961 128.3 0.1 287 -999
2011-02-24 07:13:22 51°13.662 2°55.961 128.4 0.1 282 -999
2011-02-24 07:13:27 51°13.662 2°55.961 128.4 0.1 259 -999
2011-02-24 07:13:32 51°13.662 2°55.961 128.4 0.1 318 -999
2011-02-24 07:13:37 51°13.662 2°55.961 128.4 -999 339 -999
2011-02-24 07:13:42 51°13.662 2°55.961 128.2 -999 284 -999
2011-02-24 07:13:47 51°13.662 2°55.961 128.1 0.1 39 -999
2011-02-24 07:13:52 51°13.662 2°55.961 128 0.1 348 -999
2011-02-24 07:13:57 51°13.662 2°55.961 127.9 0.1 332 -999
2011-02-24 07:14:02 51°13.662 2°55.961 127.9 0.1 344 -999
2011-02-24 07:14:07 51°13.662 2°55.961 128 0.1 326 -999
2011-02-24 07:14:12 51°13.662 2°55.961 128.1 -999 312 -999
2011-02-24 07:14:17 51°13.663 2°55.961 128.3 0.1 310 -999
2011-02-24 07:14:22 51°13.663 2°55.961 128.3 -999 231 -999
2011-02-24 07:14:26 51°13.663 2°55.961 128.3 0.1 311 -999
2011-02-24 07:14:31 51°13.663 2°55.962 128.3 0.1 352 -999
2011-02-24 07:14:37 51°13.663 2°55.962 128.3 0.1 61 -999
2011-02-24 07:14:42 51°13.662 2°55.962 128.3 0.1 76 -999
2011-02-24 07:14:47 51°13.662 2°55.962 128.3 0.1 61 -999
2011-02-24 07:14:52 51°13.663 2°55.962 128.3 0.1 331 -999
2011-02-24 07:14:57 51°13.662 2°55.962 128.3 0.1 328 -999
2011-02-24 07:15:02 51°13.662 2°55.962 128.3 0.1 333 -999
2011-02-24 07:15:07 51°13.663 2°55.962 128.4 0.1 18 -999
2011-02-24 07:15:12 51°13.663 2°55.962 128.4 0.1 325 -999
2011-02-24 07:15:17 51°13.662 2°55.962 128.4 0.1 319 -999
2011-02-24 07:15:22 51°13.662 2°55.962 128.4 0.1 353 -999
2011-02-24 07:15:27 51°13.662 2°55.962 128.4 0.1 334 -999
2011-02-24 07:15:32 51°13.662 2°55.962 128.4 0.1 335 -999
2011-02-24 07:15:37 51°13.662 2°55.962 128.4 0.1 271 -999
2011-02-24 07:15:42 51°13.662 2°55.962 128.4 -999 274 -999
2011-02-24 07:15:47 51°13.662 2°55.962 128.4 -999 186 -999
2011-02-24 07:15:51 51°13.662 2°55.962 128.4 -999 3 -999
2011-02-24 07:15:57 51°13.662 2°55.962 128.4 0.1 330 -999
2011-02-24 07:16:02 51°13.662 2°55.962 128.4 0.1 348 -999
2011-02-24 07:16:07 51°13.662 2°55.962 128.4 0.1 348 -999
2011-02-24 07:16:12 51°13.662 2°55.962 128.4 -999 95 -999
2011-02-24 07:16:17 51°13.662 2°55.962 128.4 0.1 3 -999
2011-02-24 07:16:22 51°13.662 2°55.962 128.4 -999 314 -999
2011-02-24 07:16:27 51°13.662 2°55.962 128.3 -999 329 -999
2011-02-24 07:16:32 51°13.661 2°55.962 128.1 0.1 246 -999
2011-02-24 07:16:37 51°13.662 2°55.962 128 0.2 356 -999
2011-02-24 07:16:42 51°13.662 2°55.962 127.8 0.2 326 -999
2011-02-24 07:16:47 51°13.662 2°55.962 127.6 0.1 311 -999
2011-02-24 07:16:51 51°13.661 2°55.962 127.4 -999 310 -999
2011-02-24 07:16:57 51°13.661 2°55.962 127.3 -999 221 -999
2011-02-24 07:17:02 51°13.661 2°55.962 127.1 -999 279 -999
2011-02-24 07:17:07 51°13.661 2°55.962 127 0.1 298 -999
2011-02-24 07:17:12 51°13.662 2°55.962 127 0.1 30 -999
2011-02-24 07:17:17 51°13.661 2°55.962 126.9 0.1 207 -999
2011-02-24 07:17:22 51°13.661 2°55.961 126.9 0.1 248 -999
2011-02-24 07:17:27 51°13.661 2°55.961 126.9 0.1 265 -999
2011-02-24 07:17:32 51°13.662 2°55.961 126.9 0.1 321 -999
2011-02-24 07:17:37 51°13.662 2°55.962 127 -999 358 -999
2011-02-24 07:17:41 51°13.661 2°55.961 127.3 -999 252 -999
2011-02-24 07:17:47 51°13.661 2°55.962 127.7 -999 203 -999
2011-02-24 07:17:52 51°13.661 2°55.962 128 0.1 200 -999
2011-02-24 07:17:57 51°13.661 2°55.962 128 -999 172 -999
2011-02-24 07:18:02 51°13.661 2°55.962 128 0.1 336 -999
2011-02-24 07:18:07 51°13.661 2°55.961 127.9 0.1 308 -999
2011-02-24 07:18:12 51°13.661 2°55.961 127.7 0.1 274 -999
2011-02-24 07:18:17 51°13.661 2°55.961 127.5 0.1 350 -999
2011-02-24 07:18:22 51°13.661 2°55.961 127.3 0.1 333 -999
2011-02-24 07:18:27 51°13.661 2°55.961 127.2 0.1 298 -999
2011-02-24 07:18:32 51°13.661 2°55.961 127.1 0.1 305 -999
2011-02-24 07:18:37 51°13.661 2°55.961 126.9 -999 319 -999
2011-02-24 07:18:41 51°13.661 2°55.962 126.7 0.1 336 -999
2011-02-24 07:18:46 51°13.661 2°55.961 126.4 0.1 317 -999
2011-02-24 07:18:52 51°13.661 2°55.961 126.3 0.2 341 -999
2011-02-24 07:18:57 51°13.661 2°55.961 126.3 0.2 329 -999
2011-02-24 07:19:02 51°13.661 2°55.962 126.3 0.1 18 -999
2011-02-24 07:19:07 51°13.661 2°55.962 126.3 0.1 19 -999
2011-02-24 07:19:12 51°13.661 2°55.962 126.3 0.1 28 -999
2011-02-24 07:19:17 51°13.661 2°55.962 126.3 0.1 18 -999
2011-02-24 07:19:22 51°13.661 2°55.961 126.3 -999 14 -999
2011-02-24 07:19:27 51°13.661 2°55.961 126.3 0.1 307 -999
2011-02-24 07:19:32 51°13.661 2°55.961 126.3 0.1 346 -999
2011-02-24 07:19:37 51°13.661 2°55.961 126.1 0.1 344 -999
2011-02-24 07:19:42 51°13.662 2°55.961 125.9 0.1 348 -999
2011-02-24 07:19:47 51°13.662 2°55.961 125.7 0.1 322 -999
2011-02-24 07:19:51 51°13.662 2°55.961 125.7 0.1 336 -999
2011-02-24 07:19:56 51°13.662 2°55.961 125.5 0.1 338 -999
2011-02-24 07:20:02 51°13.662 2°55.961 125.4 -999 347 -999
2011-02-24 07:20:07 51°13.662 2°55.961 125.4 -999 105 -999
2011-02-24 07:20:12 51°13.662 2°55.961 125.4 0.1 358 -999
2011-02-24 07:20:17 51°13.662 2°55.961 125.4 0.1 353 -999
2011-02-24 07:20:22 51°13.662 2°55.961 125.4 0.1 329 -999
2011-02-24 07:20:27 51°13.662 2°55.961 125.4 0.1 326 -999
2011-02-24 07:20:32 51°13.662 2°55.961 125.4 0.1 310 -999
2011-02-24 07:20:37 51°13.662 2°55.961 125.5 0.1 307 -999
2011-02-24 07:20:42 51°13.662 2°55.961 125.6 0.1 297 -999
2011-02-24 07:20:47 51°13.662 2°55.96 125.7 0.1 277 -999
2011-02-24 07:20:52 51°13.662 2°55.96 125.9 0.1 241 -999
2011-02-24 07:20:57 51°13.662 2°55.96 126.1 0.1 253 -999
2011-02-24 07:21:02 51°13.662 2°55.96 126.3 0.1 286 -999
2011-02-24 07:21:07 51°13.662 2°55.961 126.5 0.1 1 -999
2011-02-24 07:21:11 51°13.662 2°55.961 126.9 -999 348 -999
2011-02-24 07:21:17 51°13.662 2°55.961 127 0.1 270 -999
2011-02-24 07:21:22 51°13.662 2°55.961 127.4 0.1 276 -999
2011-02-24 07:21:27 51°13.662 2°55.961 127.7 0.1 329 -999
2011-02-24 07:21:32 51°13.662 2°55.962 128 0.1 38 -999
2011-02-24 07:21:37 51°13.662 2°55.962 128.1 0.1 346 -999
2011-02-24 07:21:42 51°13.662 2°55.962 128.1 0.1 8 -999
2011-02-24 07:21:47 51°13.662 2°55.961 128.1 0.1 355 -999
2011-02-24 07:21:52 51°13.662 2°55.961 128.1 0.1 351 -999
2011-02-24 07:21:57 51°13.662 2°55.961 128.3 0.1 311 -999
2011-02-24 07:22:02 51°13.662 2°55.961 128.3 0.1 317 -999
2011-02-24 07:22:07 51°13.662 2°55.961 128.3 0.1 330 -999
2011-02-24 07:22:12 51°13.662 2°55.961 128.3 0.1 10 -999
2011-02-24 07:22:17 51°13.662 2°55.961 128.3 0.1 312 -999
2011-02-24 07:22:22 51°13.662 2°55.961 128.3 0.1 313 -999
2011-02-24 07:22:27 51°13.662 2°55.961 128.3 0.1 313 -999
2011-02-24 07:22:32 51°13.662 2°55.961 128.3 0.1 312 -999
2011-02-24 07:22:37 51°13.662 2°55.961 128.3 0.1 1 -999
2011-02-24 07:22:42 51°13.662 2°55.961 128.4 0.1 319 -999
2011-02-24 07:22:47 51°13.662 2°55.961 128.5 0.1 322 -999
2011-02-24 07:22:52 51°13.663 2°55.961 128.6 0.1 5 -999
2011-02-24 07:22:57 51°13.663 2°55.961 128.6 0.1 329 -999
2011-02-24 07:23:02 51°13.663 2°55.961 128.6 0.1 315 -999
2011-02-24 07:23:07 51°13.663 2°55.961 128.6 0.1 348 -999
2011-02-24 07:23:12 51°13.663 2°55.961 128.5 0.1 359 -999
2011-02-24 07:23:17 51°13.663 2°55.961 128.3 0.1 9 -999
2011-02-24 07:23:22 51°13.663 2°55.961 128.1 0.1 21 -999
2011-02-24 07:23:27 51°13.663 2°55.961 128 0.1 29 -999
2011-02-24 07:23:32 51°13.663 2°55.961 128 0.1 314 -999
2011-02-24 07:23:37 51°13.663 2°55.961 127.9 0.1 314 -999
2011-02-24 07:23:42 51°13.663 2°55.961 127.9 0.1 328 -999
2011-02-24 07:23:47 51°13.663 2°55.961 127.9 0.1 354 -999
2011-02-24 07:23:51 51°13.663 2°55.961 127.9 0.1 8 -999
2011-02-24 07:23:56 51°13.663 2°55.961 127.8 0.1 336 -999
2011-02-24 07:24:02 51°13.663 2°55.961 127.7 0.1 333 -999
2011-02-24 07:24:07 51°13.663 2°55.961 127.7 0.1 303 -999
2011-02-24 07:24:12 51°13.664 2°55.961 127.7 0.1 335 -999
2011-02-24 07:24:17 51°13.663 2°55.96 127.7 0.1 277 -999
2011-02-24 07:24:22 51°13.663 2°55.96 127.7 0.1 324 -999
2011-02-24 07:24:27 51°13.663 2°55.96 127.7 -999 287 -999
2011-02-24 07:24:32 51°13.663 2°55.96 127.8 -999 264 -999
2011-02-24 07:24:37 51°13.663 2°55.96 128.1 -999 309 -999
2011-02-24 07:24:42 51°13.663 2°55.96 128.1 0.1 350 -999
2011-02-24 07:24:47 51°13.663 2°55.96 128 0.1 339 -999
2011-02-24 07:24:51 51°13.663 2°55.96 127.8 0.1 6 -999
2011-02-24 07:24:57 51°13.663 2°55.96 127.6 0.1 27 -999
2011-02-24 07:25:02 51°13.663 2°55.96 127.6 0.1 2 -999
2011-02-24 07:25:07 51°13.663 2°55.96 127.4 0.1 327 -999
2011-02-24 07:25:12 51°13.663 2°55.96 127.3 0.1 319 -999
2011-02-24 07:25:17 51°13.663 2°55.96 127.3 0.1 302 -999
2011-02-24 07:25:22 51°13.663 2°55.96 127.3 0.1 317 -999
2011-02-24 07:25:26 51°13.663 2°55.96 127.3 0.1 306 -999
2011-02-24 07:25:31 51°13.663 2°55.96 127.3 -999 281 -999
2011-02-24 07:25:37 51°13.663 2°55.96 127.2 0.1 353 -999
2011-02-24 07:25:42 51°13.663 2°55.96 127.1 0.1 334 -999
2011-02-24 07:25:47 51°13.663 2°55.96 127 0.1 1 -999
2011-02-24 07:25:52 51°13.663 2°55.96 126.7 0.1 351 -999
2011-02-24 07:25:57 51°13.663 2°55.959 126.5 0.1 1 -999
2011-02-24 07:26:02 51°13.663 2°55.959 126.3 0.1 309 -999
2011-02-24 07:26:07 51°13.663 2°55.959 126.1 0.2 329 -999
2011-02-24 07:26:12 51°13.663 2°55.959 126 0.2 331 -999
2011-02-24 07:26:17 51°13.663 2°55.959 125.9 0.1 341 -999
2011-02-24 07:26:22 51°13.663 2°55.959 125.9 0.1 320 -999
2011-02-24 07:26:27 51°13.663 2°55.959 125.9 0.1 325 -999
2011-02-24 07:26:32 51°13.663 2°55.959 126 0.1 350 -999
2011-02-24 07:26:37 51°13.663 2°55.959 126.1 0.1 324 -999
2011-02-24 07:26:42 51°13.663 2°55.959 126.1 0.1 333 -999
2011-02-24 07:26:47 51°13.663 2°55.959 126.1 0.1 349 -999
2011-02-24 07:26:52 51°13.663 2°55.959 126.1 0.1 340 -999
2011-02-24 07:26:57 51°13.663 2°55.959 126.1 0.1 276 -999
2011-02-24 07:27:01 51°13.663 2°55.959 125.9 -999 334 -999
2011-02-24 07:27:06 51°13.663 2°55.959 125.7 -999 267 -999
2011-02-24 07:27:12 51°13.663 2°55.959 125.5 0.1 255 -999
2011-02-24 07:27:17 51°13.663 2°55.959 125.2 0.1 328 -999
2011-02-24 07:27:22 51°13.664 2°55.96 124.9 0.1 334 -999
2011-02-24 07:27:27 51°13.664 2°55.96 124.6 0.1 307 -999
2011-02-24 07:27:32 51°13.664 2°55.96 124.5 0.2 331 -999
2011-02-24 07:27:37 51°13.664 2°55.96 124.4 0.1 318 -999
2011-02-24 07:27:41 51°13.664 2°55.96 124.5 0.1 -999 -999
2011-02-24 07:27:46 51°13.664 2°55.96 124.5 0.1 353 -999
2011-02-24 07:27:52 51°13.664 2°55.96 124.5 0.1 334 -999
2011-02-24 07:27:57 51°13.663 2°55.96 124.5 0.1 317 -999
2011-02-24 07:28:02 51°13.663 2°55.96 124.5 0.1 347 -999
2011-02-24 07:28:07 51°13.663 2°55.96 124.5 0.1 354 -999
2011-02-24 07:28:12 51°13.663 2°55.96 124.5 0.1 323 -999
2011-02-24 07:28:17 51°13.663 2°55.96 124.5 0.1 348 -999
2011-02-24 07:28:22 51°13.663 2°55.96 124.5 0.1 330 -999
2011-02-24 07:28:27 51°13.663 2°55.96 124.5 0.1 342 -999
2011-02-24 07:28:32 51°13.663 2°55.96 124.3 0.1 3 -999
2011-02-24 07:28:37 51°13.663 2°55.96 124.2 0.1 352 -999
2011-02-24 07:28:42 51°13.663 2°55.96 124.1 0.1 354 -999
2011-02-24 07:28:47 51°13.663 2°55.96 123.9 0.1 6 -999
2011-02-24 07:28:52 51°13.663 2°55.96 123.7 0.1 10 -999
2011-02-24 07:28:57 51°13.663 2°55.96 123.7 0.1 5 -999
2011-02-24 07:29:02 51°13.663 2°55.96 123.7 0.1 306 -999
2011-02-24 07:29:07 51°13.663 2°55.96 123.7 0.1 323 -999
2011-02-24 07:29:11 51°13.663 2°55.96 123.7 0.1 10 -999
2011-02-24 07:29:17 51°13.663 2°55.96 123.7 0.1 19 -999
2011-02-24 07:29:21 51°13.663 2°55.96 123.7 0.2 32 -999
2011-02-24 07:29:27 51°13.663 2°55.959 123.7 0.1 312 -999
2011-02-24 07:29:32 51°13.663 2°55.959 123.7 0.1 295 -999
2011-02-24 07:29:37 51°13.663 2°55.96 123.7 0.1 11 -999
2011-02-24 07:29:42 51°13.663 2°55.959 123.6 0.2 298 -999
2011-02-24 07:29:47 51°13.662 2°55.959 123.6 0.2 280 -999
2011-02-24 07:29:52 51°13.662 2°55.959 123.6 0.1 305 -999
2011-02-24 07:29:56 51°13.662 2°55.959 123.6 0.1 325 -999
2011-02-24 07:30:01 51°13.662 2°55.959 123.6 0.1 351 -999
2011-02-24 07:30:07 51°13.662 2°55.959 123.7 0.1 27 -999
2011-02-24 07:30:12 51°13.662 2°55.959 123.7 0.1 352 -999
2011-02-24 07:30:17 51°13.662 2°55.959 123.6 0.1 293 -999
2011-02-24 07:30:22 51°13.662 2°55.959 123.5 0.1 327 -999
2011-02-24 07:30:27 51°13.662 2°55.959 123.5 0.1 290 -999
2011-02-24 07:30:32 51°13.662 2°55.959 123.5 0.1 249 -999
2011-02-24 07:30:37 51°13.662 2°55.959 123.5 -999 319 -999
2011-02-24 07:30:42 51°13.662 2°55.959 123.5 -999 18 -999
2011-02-24 07:30:47 51°13.662 2°55.959 123.8 -999 340 -999
2011-02-24 07:30:52 51°13.662 2°55.96 123.8 0.1 15 -999
2011-02-24 07:30:56 51°13.662 2°55.96 124 -999 57 -999
2011-02-24 07:31:01 51°13.662 2°55.96 124.1 -999 355 -999
2011-02-24 07:31:06 51°13.662 2°55.96 124.2 0.1 16 -999
2011-02-24 07:31:12 51°13.662 2°55.959 124.2 0.1 311 -999
2011-02-24 07:31:17 51°13.662 2°55.959 124.2 -999 344 -999
2011-02-24 07:31:22 51°13.662 2°55.959 124.2 0.1 354 -999
2011-02-24 07:31:27 51°13.662 2°55.959 124.3 0.1 29 -999
2011-02-24 07:31:32 51°13.662 2°55.959 124.3 0.1 357 -999
2011-02-24 07:31:37 51°13.662 2°55.959 124.4 0.1 278 -999
2011-02-24 07:31:42 51°13.662 2°55.959 124.5 0.1 298 -999
2011-02-24 07:31:47 51°13.662 2°55.959 124.6 -999 48 -999
2011-02-24 07:31:52 51°13.662 2°55.959 124.8 0.1 59 -999
2011-02-24 07:31:57 51°13.662 2°55.959 124.9 0.1 14 -999
2011-02-24 07:32:02 51°13.662 2°55.959 125 0.1 285 -999
2011-02-24 07:32:07 51°13.662 2°55.959 125 0.1 299 -999
2011-02-24 07:32:11 51°13.662 2°55.959 125 0.1 340 -999
2011-02-24 07:32:16 51°13.662 2°55.959 124.8 0.1 345 -999
2011-02-24 07:32:22 51°13.662 2°55.959 124.6 0.1 354 -999
2011-02-24 07:32:27 51°13.662 2°55.959 124.4 0.1 317 -999
2011-02-24 07:32:32 51°13.662 2°55.959 124.3 0.1 326 -999
2011-02-24 07:32:37 51°13.662 2°55.96 124.3 0.1 354 -999
2011-02-24 07:32:42 51°13.662 2°55.959 124.3 0.1 298 -999
2011-02-24 07:32:47 51°13.662 2°55.959 124.4 0.1 290 -999
2011-02-24 07:32:52 51°13.662 2°55.96 124.6 0.1 341 -999
2011-02-24 07:32:57 51°13.662 2°55.96 124.9 0.1 344 -999
2011-02-24 07:33:02 51°13.662 2°55.96 125 -999 338 -999
2011-02-24 07:33:06 51°13.662 2°55.96 125.2 -999 287 -999
2011-02-24 07:33:11 51°13.662 2°55.96 125.3 -999 351 -999
2011-02-24 07:33:16 51°13.662 2°55.96 125.4 0.1 334 -999
2011-02-24 07:33:22 51°13.662 2°55.959 125.4 0.2 278 -999
2011-02-24 07:33:26 51°13.662 2°55.959 125.4 0.2 266 -999
2011-02-24 07:33:31 51°13.662 2°55.959 125.3 0.1 308 -999
2011-02-24 07:33:36 51°13.662 2°55.96 125 0.1 10 -999
2011-02-24 07:33:42 51°13.662 2°55.96 124.8 0.1 359 -999
2011-02-24 07:33:47 51°13.662 2°55.96 124.7 0.1 340 -999
2011-02-24 07:33:52 51°13.662 2°55.96 124.6 0.1 316 -999
2011-02-24 07:33:57 51°13.662 2°55.96 124.6 0.1 282 -999
2011-02-24 07:34:02 51°13.662 2°55.96 124.6 0.1 316 -999
2011-02-24 07:34:07 51°13.662 2°55.96 124.5 0.1 -999 -999
2011-02-24 07:34:12 51°13.662 2°55.96 124.5 0.1 23 -999
2011-02-24 07:34:17 51°13.662 2°55.96 124.5 0.1 312 -999
2011-02-24 07:34:21 51°13.662 2°55.959 124.5 0.2 280 -999
2011-02-24 07:34:27 51°13.662 2°55.96 124.5 0.1 341 -999
2011-02-24 07:34:32 51°13.662 2°55.96 124.7 0.1 338 -999
2011-02-24 07:34:37 51°13.662 2°55.96 124.9 0.1 25 -999
2011-02-24 07:34:42 51°13.662 2°55.96 125 0.1 37 -999
2011-02-24 07:34:47 51°13.661 2°55.96 125.2 0.1 341 -999
2011-02-24 07:34:52 51°13.662 2°55.96 125.3 0.1 354 -999
2011-02-24 07:34:57 51°13.662 2°55.96 125.4 0.1 351 -999
2011-02-24 07:35:02 51°13.662 2°55.96 125.4 0.1 355 -999
2011-02-24 07:35:06 51°13.661 2°55.96 125.5 0.1 256 -999
2011-02-24 07:35:12 51°13.661 2°55.96 125.5 -999 247 -999
2011-02-24 07:35:17 51°13.662 2°55.96 125.5 -999 12 -999
2011-02-24 07:35:22 51°13.662 2°55.961 125.5 0.1 22 -999
2011-02-24 07:35:27 51°13.662 2°55.96 125.5 0.1 347 -999
2011-02-24 07:35:32 51°13.662 2°55.961 125.5 0.1 353 -999
2011-02-24 07:35:36 51°13.662 2°55.961 125.5 0.1 9 -999
2011-02-24 07:35:41 51°13.662 2°55.961 125.5 0.1 15 -999
2011-02-24 07:35:46 51°13.662 2°55.961 125.5 0.1 30 -999
2011-02-24 07:35:52 51°13.662 2°55.96 125.5 0.1 304 -999
2011-02-24 07:35:57 51°13.662 2°55.96 125.6 0.1 265 -999
2011-02-24 07:36:02 51°13.662 2°55.961 126 -999 11 -999
2011-02-24 07:36:07 51°13.662 2°55.961 126.3 0.1 91 -999
2011-02-24 07:36:12 51°13.662 2°55.961 126.8 0.1 105 -999
2011-02-24 07:36:17 51°13.662 2°55.961 127 -999 170 -999
2011-02-24 07:36:22 51°13.662 2°55.961 127 0.1 358 -999
2011-02-24 07:36:27 51°13.662 2°55.961 127 0.1 10 -999
2011-02-24 07:36:32 51°13.662 2°55.96 127 0.1 348 -999
2011-02-24 07:36:37 51°13.662 2°55.96 127 0.1 332 -999
2011-02-24 07:36:42 51°13.662 2°55.961 127 0.1 346 -999
2011-02-24 07:36:47 51°13.662 2°55.961 126.9 0.1 354 -999
2011-02-24 07:36:52 51°13.662 2°55.96 126.5 0.1 320 -999
2011-02-24 07:36:57 51°13.662 2°55.96 126 0.1 313 -999
2011-02-24 07:37:02 51°13.662 2°55.961 125.7 0.1 354 -999
2011-02-24 07:37:07 51°13.662 2°55.96 125.7 0.1 335 -999
2011-02-24 07:37:12 51°13.662 2°55.96 125.7 0.1 359 -999
2011-02-24 07:37:17 51°13.662 2°55.96 126 -999 304 -999
2011-02-24 07:37:22 51°13.662 2°55.96 126.4 -999 46 -999
2011-02-24 07:37:27 51°13.662 2°55.96 126.7 -999 37 -999
2011-02-24 07:37:32 51°13.662 2°55.96 127 -999 351 -999
2011-02-24 07:37:37 51°13.662 2°55.96 127.2 -999 291 -999
2011-02-24 07:37:42 51°13.662 2°55.96 127.3 0.1 293 -999
2011-02-24 07:37:47 51°13.662 2°55.961 127.3 0.1 314 -999
2011-02-24 07:37:52 51°13.662 2°55.961 127.3 0.1 10 -999
2011-02-24 07:37:56 51°13.662 2°55.961 127.2 0.1 343 -999
2011-02-24 07:38:01 51°13.662 2°55.96 127.1 0.1 316 -999
2011-02-24 07:38:06 51°13.662 2°55.96 127 0.1 321 -999
2011-02-24 07:38:11 51°13.662 2°55.96 127 0.1 310 -999
2011-02-24 07:38:16 51°13.662 2°55.961 126.9 0.1 352 -999
2011-02-24 07:38:22 51°13.662 2°55.96 126.9 0.1 318 -999
2011-02-24 07:38:27 51°13.662 2°55.96 127 0.1 315 -999
2011-02-24 07:38:32 51°13.662 2°55.96 127.2 0.1 264 -999
2011-02-24 07:38:37 51°13.662 2°55.96 127.4 0.1 232 -999
2011-02-24 07:38:42 51°13.662 2°55.961 127.7 0.1 117 -999
2011-02-24 07:38:47 51°13.662 2°55.961 127.9 0.1 81 -999
2011-02-24 07:38:52 51°13.662 2°55.961 128 0.1 3 -999
2011-02-24 07:38:57 51°13.662 2°55.961 128 0.1 346 -999
2011-02-24 07:39:02 51°13.662 2°55.961 127.8 0.1 353 -999
2011-02-24 07:39:07 51°13.662 2°55.961 127.4 0.1 7 -999
2011-02-24 07:39:12 51°13.662 2°55.96 127.1 0.2 332 -999
2011-02-24 07:39:16 51°13.662 2°55.96 127 0.1 305 -999
2011-02-24 07:39:22 51°13.662 2°55.96 127.1 0.1 322 -999
2011-02-24 07:39:26 51°13.662 2°55.96 127.2 0.1 291 -999
2011-02-24 07:39:32 51°13.662 2°55.96 127.3 0.1 314 -999
2011-02-24 07:39:36 51°13.662 2°55.961 127.4 0.1 39 -999
2011-02-24 07:39:41 51°13.662 2°55.961 127.6 0.1 61 -999
2011-02-24 07:39:46 51°13.662 2°55.961 127.8 -999 129 -999
2011-02-24 07:39:51 51°13.662 2°55.961 128.1 -999 337 -999
2011-02-24 07:39:56 51°13.662 2°55.961 128.3 -999 333 -999
2011-02-24 07:40:02 51°13.662 2°55.961 128.3 0.1 313 -999
2011-02-24 07:40:07 51°13.662 2°55.961 128.1 0.1 7 -999
2011-02-24 07:40:12 51°13.662 2°55.961 127.8 0.2 12 -999
2011-02-24 07:40:17 51°13.662 2°55.961 127.3 0.1 350 -999
2011-02-24 07:40:22 51°13.662 2°55.961 127 0.1 355 -999
2011-02-24 07:40:27 51°13.662 2°55.961 126.5 0.1 346 -999
2011-02-24 07:40:32 51°13.662 2°55.961 126.4 0.1 312 -999
2011-02-24 07:40:37 51°13.662 2°55.961 126.4 0.1 26 -999
2011-02-24 07:40:42 51°13.662 2°55.96 126.4 0.1 267 -999
2011-02-24 07:40:47 51°13.662 2°55.96 126.4 0.1 310 -999
2011-02-24 07:40:52 51°13.662 2°55.961 126.5 -999 55 -999
2011-02-24 07:40:56 51°13.662 2°55.961 126.6 -999 82 -999
2011-02-24 07:41:02 51°13.662 2°55.961 126.8 -999 209 -999
2011-02-24 07:41:07 51°13.662 2°55.961 127 0.1 16 -999
2011-02-24 07:41:12 51°13.662 2°55.961 127.1 0.1 357 -999
2011-02-24 07:41:17 51°13.662 2°55.961 127.4 0.1 4 -999
2011-02-24 07:41:22 51°13.662 2°55.961 127.6 0.1 296 -999
2011-02-24 07:41:27 51°13.662 2°55.961 127.8 0.1 286 -999
2011-02-24 07:41:32 51°13.662 2°55.961 128 0.1 292 -999
2011-02-24 07:41:37 51°13.662 2°55.961 128.1 0.1 349 -999
2011-02-24 07:41:42 51°13.662 2°55.961 128.3 0.1 331 -999
2011-02-24 07:41:47 51°13.662 2°55.961 128.3 0.1 342 -999
2011-02-24 07:41:52 51°13.662 2°55.961 128.3 0.1 13 -999
2011-02-24 07:41:57 51°13.662 2°55.961 128.4 -999 213 -999
2011-02-24 07:42:02 51°13.662 2°55.961 128.4 0.1 172 -999
2011-02-24 07:42:07 51°13.662 2°55.961 128.4 0.1 275 -999
2011-02-24 07:42:12 51°13.662 2°55.961 128.4 0.1 304 -999
2011-02-24 07:42:17 51°13.662 2°55.961 128.4 -999 302 -999
2011-02-24 07:42:22 51°13.662 2°55.961 128.4 -999 310 -999
2011-02-24 07:42:27 51°13.662 2°55.962 128.3 0.1 34 -999
2011-02-24 07:42:32 51°13.662 2°55.961 128.3 0.1 243 -999
2011-02-24 07:42:36 51°13.662 2°55.961 128.3 0.1 286 -999
2011-02-24 07:42:42 51°13.662 2°55.962 128.3 0.1 14 -999
2011-02-24 07:42:47 51°13.662 2°55.962 128.3 0.1 34 -999
2011-02-24 07:42:52 51°13.662 2°55.962 128.3 0.1 32 -999
2011-02-24 07:42:57 51°13.662 2°55.962 128.3 0.1 4 -999
2011-02-24 07:43:02 51°13.662 2°55.961 128.3 0.1 355 -999
2011-02-24 07:43:07 51°13.662 2°55.961 128.3 0.1 7 -999
2011-02-24 07:43:12 51°13.662 2°55.961 128.3 0.1 293 -999
2011-02-24 07:43:17 51°13.662 2°55.961 128.4 0.1 305 -999
2011-02-24 07:43:22 51°13.662 2°55.962 128.5 0.1 1 -999
2011-02-24 07:43:27 51°13.662 2°55.962 128.5 0.1 338 -999
2011-02-24 07:43:31 51°13.662 2°55.962 128.5 0.1 341 -999
2011-02-24 07:43:36 51°13.662 2°55.962 128.5 -999 356 -999
2011-02-24 07:43:42 51°13.662 2°55.962 128.5 0.1 58 -999
2011-02-24 07:43:47 51°13.662 2°55.962 128.5 -999 99 -999
2011-02-24 07:43:52 51°13.662 2°55.961 128.5 -999 309 -999
2011-02-24 07:43:57 51°13.662 2°55.961 128.5 0.1 277 -999
2011-02-24 07:44:02 51°13.662 2°55.961 128.5 0.1 329 -999
2011-02-24 07:44:07 51°13.662 2°55.961 128.5 0.1 16 -999
2011-02-24 07:44:12 51°13.662 2°55.961 128.4 -999 11 -999
2011-02-24 07:44:17 51°13.662 2°55.961 128.4 0.1 18 -999
2011-02-24 07:44:22 51°13.662 2°55.962 128.3 0.1 35 -999
2011-02-24 07:44:27 51°13.662 2°55.961 128.1 -999 1 -999
2011-02-24 07:44:32 51°13.662 2°55.961 127.9 0.1 244 -999
2011-02-24 07:44:37 51°13.662 2°55.961 127.7 0.1 285 -999
2011-02-24 07:44:42 51°13.663 2°55.961 127.5 0.1 314 -999
2011-02-24 07:44:47 51°13.663 2°55.961 127.3 0.1 299 -999
2011-02-24 07:44:52 51°13.662 2°55.961 127.1 -999 2 -999
2011-02-24 07:44:57 51°13.662 2°55.961 127 0.1 266 -999
2011-02-24 07:45:02 51°13.662 2°55.961 126.8 0.1 296 -999
2011-02-24 07:45:07 51°13.662 2°55.961 126.7 0.1 294 -999
2011-02-24 07:45:12 51°13.663 2°55.961 126.7 0.1 299 -999
2011-02-24 07:45:17 51°13.663 2°55.961 126.6 0.1 338 -999
2011-02-24 07:45:22 51°13.663 2°55.961 126.6 0.1 13 -999
2011-02-24 07:45:27 51°13.663 2°55.961 126.6 0.1 36 -999
2011-02-24 07:45:32 51°13.663 2°55.961 126.7 0.1 355 -999
2011-02-24 07:45:37 51°13.663 2°55.961 126.8 0.1 24 -999
2011-02-24 07:45:42 51°13.663 2°55.961 126.9 0.1 33 -999
2011-02-24 07:45:47 51°13.663 2°55.961 127 0.1 345 -999
2011-02-24 07:45:52 51°13.663 2°55.961 127 0.1 331 -999
2011-02-24 07:45:57 51°13.663 2°55.961 127.1 0.1 308 -999
2011-02-24 07:46:02 51°13.663 2°55.961 127.2 0.1 276 -999
2011-02-24 07:46:07 51°13.663 2°55.961 127.4 -999 330 -999
2011-02-24 07:46:12 51°13.663 2°55.961 127.7 0.1 8 -999
2011-02-24 07:46:16 51°13.663 2°55.961 127.8 0.1 284 -999
2011-02-24 07:46:21 51°13.663 2°55.961 127.8 -999 251 -999
2011-02-24 07:46:26 51°13.663 2°55.961 127.9 0.1 289 -999
2011-02-24 07:46:31 51°13.663 2°55.961 128 0.1 347 -999
2011-02-24 07:46:37 51°13.663 2°55.962 128 0.1 39 -999
2011-02-24 07:46:42 51°13.663 2°55.961 128.1 0.1 319 -999
2011-02-24 07:46:47 51°13.663 2°55.961 128.4 0.1 265 -999
2011-02-24 07:46:52 51°13.663 2°55.961 128.5 -999 312 -999
2011-02-24 07:46:57 51°13.663 2°55.961 128.5 -999 356 -999
2011-02-24 07:47:02 51°13.663 2°55.961 128.4 -999 316 -999
2011-02-24 07:47:07 51°13.663 2°55.961 128.3 0.1 354 -999
2011-02-24 07:47:12 51°13.663 2°55.961 128.3 -999 18 -999
2011-02-24 07:47:17 51°13.663 2°55.961 128.3 0.1 31 -999
2011-02-24 07:47:22 51°13.662 2°55.961 128.3 0.1 48 -999
2011-02-24 07:47:27 51°13.662 2°55.961 128.3 -999 21 -999
2011-02-24 07:47:32 51°13.662 2°55.961 128.3 0.1 287 -999
2011-02-24 07:47:37 51°13.662 2°55.961 128.3 -999 319 -999
2011-02-24 07:47:42 51°13.663 2°55.961 128.3 0.1 346 -999
2011-02-24 07:47:47 51°13.662 2°55.961 128.3 0.1 274 -999
2011-02-24 07:47:51 51°13.662 2°55.961 128.3 -999 210 -999
2011-02-24 07:47:56 51°13.663 2°55.961 128.3 0.1 351 -999
2011-02-24 07:48:01 51°13.663 2°55.961 128.4 0.1 314 -999
2011-02-24 07:48:07 51°13.662 2°55.961 128.5 -999 319 -999
2011-02-24 07:48:12 51°13.662 2°55.961 128.6 -999 241 -999
2011-02-24 07:48:17 51°13.662 2°55.961 128.7 -999 236 -999
2011-02-24 07:48:22 51°13.662 2°55.961 128.9 0.1 264 -999
2011-02-24 07:48:27 51°13.662 2°55.961 128.9 -999 290 -999
2011-02-24 07:48:32 51°13.662 2°55.961 128.7 0.1 20 -999
2011-02-24 07:48:37 51°13.662 2°55.961 128.5 0.1 349 -999
2011-02-24 07:48:42 51°13.662 2°55.961 128 0.1 310 -999
2011-02-24 07:48:47 51°13.662 2°55.961 127.6 0.1 332 -999
2011-02-24 07:48:52 51°13.662 2°55.961 127.2 0.1 330 -999
2011-02-24 07:48:57 51°13.662 2°55.96 126.5 0.2 304 -999
2011-02-24 07:49:02 51°13.662 2°55.96 126 0.2 280 -999
2011-02-24 07:49:07 51°13.663 2°55.96 125.7 0.1 279 -999
2011-02-24 07:49:12 51°13.663 2°55.961 125.5 0.1 19 -999
2011-02-24 07:49:17 51°13.662 2°55.961 125.4 0.1 65 -999
2011-02-24 07:49:22 51°13.662 2°55.96 125.3 0.1 314 -999
2011-02-24 07:49:27 51°13.662 2°55.961 125.3 -999 357 -999
2011-02-24 07:49:32 51°13.662 2°55.961 125.3 -999 16 -999
2011-02-24 07:49:37 51°13.662 2°55.96 125.3 0.1 256 -999
2011-02-24 07:49:42 51°13.662 2°55.96 125.4 -999 296 -999
2011-02-24 07:49:47 51°13.662 2°55.96 125.6 -999 320 -999
2011-02-24 07:49:52 51°13.662 2°55.96 125.7 0.1 354 -999
2011-02-24 07:49:57 51°13.662 2°55.96 125.7 0.1 335 -999
2011-02-24 07:50:02 51°13.661 2°55.96 125.9 0.1 255 -999
2011-02-24 07:50:07 51°13.661 2°55.96 125.9 0.1 248 -999
2011-02-24 07:50:12 51°13.661 2°55.96 125.9 0.1 275 -999
2011-02-24 07:50:17 51°13.662 2°55.961 125.9 0.1 37 -999
2011-02-24 07:50:22 51°13.662 2°55.961 126 -999 21 -999
2011-02-24 07:50:27 51°13.662 2°55.961 125.8 -999 268 -999
2011-02-24 07:50:31 51°13.662 2°55.961 125.7 -999 330 -999
2011-02-24 07:50:37 51°13.662 2°55.961 125.7 -999 58 -999
2011-02-24 07:50:42 51°13.662 2°55.961 125.7 -999 137 -999
2011-02-24 07:50:46 51°13.662 2°55.961 125.8 0.1 73 -999
2011-02-24 07:50:51 51°13.662 2°55.961 125.8 0.1 315 -999
2011-02-24 07:50:56 51°13.662 2°55.961 125.8 0.1 312 -999
2011-02-24 07:51:02 51°13.662 2°55.961 125.8 0.1 25 -999
2011-02-24 07:51:07 51°13.662 2°55.961 125.8 0.1 26 -999
2011-02-24 07:51:12 51°13.662 2°55.961 125.8 -999 5 -999
2011-02-24 07:51:17 51°13.661 2°55.961 125.8 -999 167 -999
2011-02-24 07:51:22 51°13.661 2°55.961 125.8 0.1 306 -999
2011-02-24 07:51:27 51°13.661 2°55.961 125.8 0.1 268 -999
2011-02-24 07:51:32 51°13.661 2°55.961 125.9 -999 55 -999
2011-02-24 07:51:37 51°13.661 2°55.961 126 0.1 44 -999
2011-02-24 07:51:41 51°13.662 2°55.961 126.1 0.1 41 -999
2011-02-24 07:51:46 51°13.661 2°55.961 126.2 -999 63 -999
2011-02-24 07:51:51 51°13.662 2°55.961 126.2 -999 61 -999
2011-02-24 07:51:56 51°13.662 2°55.961 126.3 0.1 36 -999
2011-02-24 07:52:02 51°13.662 2°55.961 126.3 0.1 323 -999
2011-02-24 07:52:07 51°13.662 2°55.961 126.4 0.1 323 -999
2011-02-24 07:52:12 51°13.662 2°55.961 126.5 0.1 335 -999
2011-02-24 07:52:17 51°13.662 2°55.961 126.7 -999 31 -999
2011-02-24 07:52:22 51°13.662 2°55.961 127.1 -999 37 -999
2011-02-24 07:52:27 51°13.662 2°55.961 127.3 0.1 40 -999
2011-02-24 07:52:32 51°13.662 2°55.961 127.5 0.1 21 -999
2011-02-24 07:52:37 51°13.662 2°55.961 127.7 -999 40 -999
2011-02-24 07:52:42 51°13.662 2°55.961 127.8 -999 68 -999
2011-02-24 07:52:47 51°13.661 2°55.961 127.9 0.1 294 -999
2011-02-24 07:52:52 51°13.661 2°55.961 127.8 0.1 298 -999
2011-02-24 07:52:57 51°13.661 2°55.961 127.6 0.1 349 -999
2011-02-24 07:53:02 51°13.661 2°55.961 127.3 0.1 303 -999
2011-02-24 07:53:07 51°13.661 2°55.961 127.1 0.1 299 -999
2011-02-24 07:53:12 51°13.661 2°55.961 127 0.1 279 -999
2011-02-24 07:53:17 51°13.661 2°55.961 126.9 -999 348 -999
2011-02-24 07:53:22 51°13.661 2°55.961 126.8 0.1 293 -999
2011-02-24 07:53:27 51°13.662 2°55.961 126.8 0.1 353 -999
2011-02-24 07:53:32 51°13.661 2°55.962 126.8 0.1 52 -999
2011-02-24 07:53:37 51°13.661 2°55.961 127 0.1 43 -999
2011-02-24 07:53:42 51°13.661 2°55.961 127.2 0.1 6 -999
2011-02-24 07:53:47 51°13.661 2°55.961 127.6 -999 300 -999
2011-02-24 07:53:52 51°13.661 2°55.961 127.8 0.1 314 -999
2011-02-24 07:53:57 51°13.661 2°55.961 128 0.1 284 -999
2011-02-24 07:54:01 51°13.661 2°55.962 128.1 -999 64 -999
2011-02-24 07:54:07 51°13.661 2°55.961 128.1 -999 282 -999
2011-02-24 07:54:11 51°13.661 2°55.961 128.1 -999 353 -999
2011-02-24 07:54:16 51°13.661 2°55.962 127.9 0.1 8 -999
2011-02-24 07:54:21 51°13.661 2°55.961 127.8 -999 5 -999
2011-02-24 07:54:27 51°13.661 2°55.961 127.8 -999 249 -999
2011-02-24 07:54:32 51°13.662 2°55.961 127.8 -999 295 -999
2011-02-24 07:54:37 51°13.662 2°55.961 127.7 0.1 292 -999
2011-02-24 07:54:42 51°13.662 2°55.961 127.6 0.1 324 -999
2011-02-24 07:54:47 51°13.662 2°55.962 127.3 0.1 31 -999
2011-02-24 07:54:52 51°13.662 2°55.962 127.1 0.1 19 -999
2011-02-24 07:54:57 51°13.662 2°55.962 127.1 0.1 29 -999
2011-02-24 07:55:02 51°13.662 2°55.961 127 0.1 270 -999
2011-02-24 07:55:07 51°13.661 2°55.961 127 0.1 293 -999
2011-02-24 07:55:12 51°13.661 2°55.961 127.1 0.1 274 -999
2011-02-24 07:55:16 51°13.661 2°55.961 127.2 0.1 271 -999
2011-02-24 07:55:22 51°13.661 2°55.961 127.4 0.1 271 -999
2011-02-24 07:55:26 51°13.662 2°55.961 127.5 0.1 5 -999
2011-02-24 07:55:31 51°13.662 2°55.962 127.6 0.2 14 -999
2011-02-24 07:55:37 51°13.662 2°55.962 127.6 0.1 27 -999
2011-02-24 07:55:42 51°13.662 2°55.962 127.6 -999 80 -999
2011-02-24 07:55:47 51°13.662 2°55.962 127.6 -999 41 -999
2011-02-24 07:55:52 51°13.662 2°55.961 127.6 0.1 15 -999
2011-02-24 07:55:57 51°13.662 2°55.961 127.5 0.1 330 -999
2011-02-24 07:56:02 51°13.662 2°55.961 127.4 0.1 334 -999
2011-02-24 07:56:07 51°13.662 2°55.961 127.3 0.1 265 -999
2011-02-24 07:56:11 51°13.662 2°55.961 127.2 -999 325 -999
2011-02-24 07:56:17 51°13.662 2°55.961 127.1 0.1 12 -999
2011-02-24 07:56:21 51°13.662 2°55.961 127 0.1 5 -999
2011-02-24 07:56:27 51°13.662 2°55.961 126.9 0.1 -999 -999
2011-02-24 07:56:32 51°13.662 2°55.961 126.7 0.1 293 -999
2011-02-24 07:56:37 51°13.662 2°55.961 126.5 0.1 284 -999
2011-02-24 07:56:42 51°13.662 2°55.961 126.4 0.1 2 -999
2011-02-24 07:56:47 51°13.662 2°55.961 126.4 0.1 39 -999
2011-02-24 07:56:52 51°13.662 2°55.961 126.3 0.1 25 -999
2011-02-24 07:56:57 51°13.662 2°55.961 126.3 0.1 3 -999
2011-02-24 07:57:01 51°13.662 2°55.961 126.4 0.1 37 8.5
2011-02-24 07:57:07 51°13.662 2°55.961 126.4 -999 357 -999
2011-02-24 07:57:12 51°13.662 2°55.961 126.4 -999 48 -999
2011-02-24 07:57:16 51°13.662 2°55.961 126.4 0.1 342 -999
2011-02-24 07:57:22 51°13.662 2°55.961 126.5 0.1 24 -999
2011-02-24 07:57:26 51°13.662 2°55.961 126.5 0.1 55 8.5
2011-02-24 07:57:32 51°13.662 2°55.961 126.6 0.1 7 -999
2011-02-24 07:57:36 51°13.662 2°55.961 126.8 -999 299 -999
2011-02-24 07:57:42 51°13.662 2°55.961 127 0.1 48 -999
2011-02-24 07:57:46 51°13.662 2°55.961 127.2 0.1 40 -999
2011-02-24 07:57:51 51°13.662 2°55.961 127.4 -999 5 8.5
2011-02-24 07:57:57 51°13.662 2°55.961 127.8 0.1 245 -999
2011-02-24 07:58:02 51°13.662 2°55.961 128 -999 179 -999
2011-02-24 07:58:07 51°13.662 2°55.961 128.3 -999 164 -999
2011-02-24 07:58:12 51°13.662 2°55.961 128.4 0.1 354 -999
2011-02-24 07:58:17 51°13.662 2°55.961 128.4 0.2 10 -999
2011-02-24 07:58:21 51°13.662 2°55.962 128.4 0.1 8 -999
2011-02-24 07:58:27 51°13.662 2°55.961 128.4 -999 230 -999
2011-02-24 07:58:32 51°13.662 2°55.961 128.3 -999 187 -999
2011-02-24 07:58:37 51°13.662 2°55.962 128.2 0.1 63 -999
2011-02-24 07:58:42 51°13.662 2°55.962 128.1 0.1 134 -999
2011-02-24 07:58:47 51°13.662 2°55.962 128.1 -999 15 -999
2011-02-24 07:58:52 51°13.662 2°55.962 128.1 0.1 11 8.5
2011-02-24 07:58:57 51°13.662 2°55.962 128.1 -999 32 -999
2011-02-24 07:59:01 51°13.662 2°55.962 128 0.1 61 -999
2011-02-24 07:59:07 51°13.662 2°55.962 128 0.1 41 -999
2011-02-24 07:59:12 51°13.662 2°55.962 127.8 0.1 37 -999
2011-02-24 07:59:17 51°13.662 2°55.962 127.7 0.1 25 -999
2011-02-24 07:59:22 51°13.662 2°55.961 127.5 -999 306 -999
2011-02-24 07:59:27 51°13.662 2°55.961 127.3 -999 331 -999
2011-02-24 07:59:32 51°13.662 2°55.961 127.3 0.1 318 -999
2011-02-24 07:59:37 51°13.662 2°55.961 127.2 0.1 4 -999
2011-02-24 07:59:42 51°13.662 2°55.961 127.1 0.1 303 -999
2011-02-24 07:59:47 51°13.662 2°55.961 127.1 0.1 63 -999
2011-02-24 07:59:52 51°13.662 2°55.961 127.1 0.1 38 -999
2011-02-24 07:59:57 51°13.662 2°55.961 127.1 -999 90 -999
2011-02-24 08:00:02 51°13.662 2°55.961 127.1 -999 24 -999
2011-02-24 08:00:07 51°13.662 2°55.961 127.3 0.1 294 -999
2011-02-24 08:00:12 51°13.662 2°55.961 127.4 -999 347 -999
2011-02-24 08:00:17 51°13.662 2°55.961 127.5 0.1 274 -999
2011-02-24 08:00:22 51°13.662 2°55.961 127.6 0.1 281 -999
2011-02-24 08:00:27 51°13.662 2°55.961 127.6 -999 271 -999
2011-02-24 08:00:32 51°13.662 2°55.961 127.7 -999 301 -999
2011-02-24 08:00:37 51°13.662 2°55.961 127.7 -999 153 -999
2011-02-24 08:00:41 51°13.662 2°55.961 127.7 0.1 155 -999
2011-02-24 08:00:46 51°13.662 2°55.961 127.7 -999 209 -999
2011-02-24 08:00:51 51°13.662 2°55.961 127.7 -999 252 -999
2011-02-24 08:00:56 51°13.662 2°55.961 127.7 -999 288 -999
2011-02-24 08:01:01 51°13.662 2°55.961 127.7 0.1 311 -999
2011-02-24 08:01:06 51°13.662 2°55.961 127.5 -999 315 -999
2011-02-24 08:01:12 51°13.662 2°55.961 127.2 0.1 66 -999
2011-02-24 08:01:17 51°13.662 2°55.961 127.2 0.1 51 -999
2011-02-24 08:01:22 51°13.662 2°55.961 127.1 0.1 21 -999
2011-02-24 08:01:26 51°13.662 2°55.961 127.1 -999 343 -999
2011-02-24 08:01:32 51°13.662 2°55.961 126.9 0.1 15 -999
2011-02-24 08:01:37 51°13.662 2°55.961 126.7 0.1 9 -999
2011-02-24 08:01:42 51°13.662 2°55.961 126.5 -999 217 -999
2011-02-24 08:01:46 51°13.662 2°55.961 126.4 -999 20 -999
2011-02-24 08:01:51 51°13.662 2°55.961 126.2 0.1 314 -999
2011-02-24 08:01:56 51°13.662 2°55.961 126 -999 40 -999
2011-02-24 08:02:02 51°13.662 2°55.961 125.8 0.1 50 -999
2011-02-24 08:02:07 51°13.662 2°55.961 125.7 0.1 37 -999
2011-02-24 08:02:12 51°13.663 2°55.96 125.7 0.1 353 -999
2011-02-24 08:02:17 51°13.662 2°55.96 125.7 0.1 306 -999
2011-02-24 08:02:22 51°13.662 2°55.96 125.6 0.1 237 -999
2011-02-24 08:02:27 51°13.662 2°55.96 125.6 -999 304 -999
2011-02-24 08:02:32 51°13.662 2°55.96 125.6 -999 332 -999
2011-02-24 08:02:37 51°13.662 2°55.96 125.6 -999 80 -999
2011-02-24 08:02:42 51°13.662 2°55.96 125.6 0.1 72 -999
2011-02-24 08:02:47 51°13.662 2°55.961 125.8 0.1 77 -999
2011-02-24 08:02:52 51°13.662 2°55.961 126.2 0.1 135 -999
2011-02-24 08:02:57 51°13.662 2°55.961 126.5 -999 177 -999
2011-02-24 08:03:02 51°13.662 2°55.961 127 -999 83 -999
2011-02-24 08:03:07 51°13.662 2°55.961 127.4 0.1 13 -999
2011-02-24 08:03:12 51°13.662 2°55.961 127.4 0.1 4 -999
2011-02-24 08:03:17 51°13.662 2°55.961 127.4 0.1 330 -999
2011-02-24 08:03:22 51°13.662 2°55.961 127.6 0.1 260 -999
2011-02-24 08:03:27 51°13.662 2°55.961 127.7 0.1 343 -999
2011-02-24 08:03:31 51°13.662 2°55.961 127.8 0.1 22 -999
2011-02-24 08:03:37 51°13.662 2°55.961 127.8 0.1 46 -999
2011-02-24 08:03:42 51°13.662 2°55.961 127.8 0.1 30 -999
2011-02-24 08:03:47 51°13.662 2°55.961 127.8 0.1 24 -999
2011-02-24 08:03:52 51°13.662 2°55.961 127.8 -999 306 -999
2011-02-24 08:03:56 51°13.662 2°55.961 127.8 0.1 316 -999
2011-02-24 08:04:01 51°13.662 2°55.961 127.9 -999 2 -999
2011-02-24 08:04:06 51°13.662 2°55.961 127.9 -999 76 -999
2011-02-24 08:04:11 51°13.662 2°55.961 127.9 0.1 32 -999
2011-02-24 08:04:17 51°13.662 2°55.96 127.9 -999 299 -999
2011-02-24 08:04:22 51°13.662 2°55.96 128 0.1 264 -999
2011-02-24 08:04:27 51°13.662 2°55.961 128 0.1 332 -999
2011-02-24 08:04:32 51°13.662 2°55.961 128 0.1 25 -999
2011-02-24 08:04:36 51°13.662 2°55.961 128.1 0.1 24 -999
2011-02-24 08:04:42 51°13.662 2°55.961 128.1 -999 321 -999
2011-02-24 08:04:47 51°13.662 2°55.961 128.3 -999 39 -999
2011-02-24 08:04:52 51°13.662 2°55.961 128.3 0.1 8 -999
2011-02-24 08:04:56 51°13.662 2°55.961 128.4 -999 336 -999
2011-02-24 08:05:02 51°13.662 2°55.961 128.5 -999 334 -999
2011-02-24 08:05:07 51°13.662 2°55.96 128.5 -999 260 -999
2011-02-24 08:05:12 51°13.663 2°55.961 128.5 0.1 21 -999
2011-02-24 08:05:16 51°13.663 2°55.961 128.5 0.1 19 -999
2011-02-24 08:05:22 51°13.663 2°55.961 128.5 -999 265 -999
2011-02-24 08:05:27 51°13.663 2°55.961 128.5 0.1 27 -999
2011-02-24 08:05:32 51°13.663 2°55.961 128.6 0.1 19 -999
2011-02-24 08:05:37 51°13.663 2°55.961 128.6 0.1 25 -999
2011-02-24 08:05:42 51°13.663 2°55.96 128.6 -999 331 -999
2011-02-24 08:05:47 51°13.663 2°55.961 128.7 -999 197 -999
2011-02-24 08:05:52 51°13.663 2°55.96 128.8 0.1 205 -999
2011-02-24 08:05:57 51°13.663 2°55.96 128.8 0.2 217 -999
2011-02-24 08:06:02 51°13.663 2°55.96 128.8 -999 355 -999
2011-02-24 08:06:07 51°13.663 2°55.96 128.8 0.1 344 -999
2011-02-24 08:06:12 51°13.663 2°55.96 128.8 0.1 225 -999
2011-02-24 08:06:17 51°13.663 2°55.96 128.8 0.1 262 -999
2011-02-24 08:06:22 51°13.663 2°55.96 128.8 0.1 224 -999
2011-02-24 08:06:27 51°13.663 2°55.96 128.8 0.2 216 -999
2011-02-24 08:06:32 51°13.663 2°55.96 128.8 -999 207 -999
2011-02-24 08:06:37 51°13.663 2°55.96 128.8 -999 2 -999
2011-02-24 08:06:41 51°13.663 2°55.96 128.8 -999 76 -999
2011-02-24 08:06:47 51°13.663 2°55.96 128.8 0.1 10 -999
2011-02-24 08:06:52 51°13.663 2°55.96 128.8 -999 225 -999
2011-02-24 08:06:56 51°13.663 2°55.96 128.8 -999 245 -999
2011-02-24 08:07:01 51°13.663 2°55.96 128.8 -999 65 -999
2011-02-24 08:07:07 51°13.663 2°55.96 128.8 -999 298 -999
2011-02-24 08:07:12 51°13.663 2°55.96 128.8 -999 302 -999
2011-02-24 08:07:17 51°13.663 2°55.96 128.8 -999 262 -999
2011-02-24 08:07:21 51°13.663 2°55.96 128.8 0.1 228 -999
2011-02-24 08:07:27 51°13.663 2°55.961 128.8 0.1 195 -999
2011-02-24 08:07:31 51°13.664 2°55.961 128.8 0.1 19 -999
2011-02-24 08:07:37 51°13.664 2°55.961 128.8 0.1 23 -999
2011-02-24 08:07:42 51°13.664 2°55.961 128.8 -999 338 -999
2011-02-24 08:07:46 51°13.664 2°55.961 128.8 -999 2 -999
2011-02-24 08:07:52 51°13.664 2°55.961 128.8 -999 35 -999
2011-02-24 08:07:57 51°13.664 2°55.961 128.8 0.1 8 -999
2011-02-24 08:08:02 51°13.664 2°55.961 128.8 0.1 214 -999
2011-02-24 08:08:06 51°13.664 2°55.961 128.8 0.1 58 -999
2011-02-24 08:08:12 51°13.664 2°55.961 128.8 -999 17 -999
2011-02-24 08:08:17 51°13.664 2°55.961 128.8 -999 262 -999
2011-02-24 08:08:22 51°13.664 2°55.961 128.8 0.1 25 -999
2011-02-24 08:08:26 51°13.664 2°55.961 128.8 0.1 13 -999
2011-02-24 08:08:31 51°13.664 2°55.961 128.8 0.2 26 -999
2011-02-24 08:08:37 51°13.664 2°55.961 128.8 0.1 17 -999
2011-02-24 08:08:42 51°13.664 2°55.961 128.8 0.1 34 -999
2011-02-24 08:08:47 51°13.664 2°55.961 128.8 0.1 42 -999
2011-02-24 08:08:51 51°13.664 2°55.961 128.8 0.1 34 -999
2011-02-24 08:08:57 51°13.664 2°55.961 128.8 0.1 28 -999
2011-02-24 08:09:02 51°13.664 2°55.96 128.8 -999 249 -999
2011-02-24 08:09:07 51°13.664 2°55.961 128.8 -999 230 -999
2011-02-24 08:09:12 51°13.664 2°55.961 128.8 -999 191 -999
2011-02-24 08:09:17 51°13.664 2°55.961 128.7 -999 186 -999
2011-02-24 08:09:22 51°13.664 2°55.961 128.6 -999 224 -999
2011-02-24 08:09:27 51°13.664 2°55.961 128.6 -999 209 -999
2011-02-24 08:09:32 51°13.664 2°55.961 128.6 0.1 36 -999
2011-02-24 08:09:37 51°13.664 2°55.961 128.6 0.1 29 -999
2011-02-24 08:09:42 51°13.663 2°55.961 128.6 -999 220 -999
2011-02-24 08:09:47 51°13.663 2°55.961 128.6 0.1 211 -999
2011-02-24 08:09:52 51°13.664 2°55.961 128.6 -999 272 -999
2011-02-24 08:09:57 51°13.664 2°55.961 128.6 -999 57 -999
2011-02-24 08:10:02 51°13.664 2°55.961 128.6 0.1 22 -999
2011-02-24 08:10:07 51°13.664 2°55.961 128.6 -999 40 -999
2011-02-24 08:10:12 51°13.664 2°55.961 128.6 0.1 202 -999
2011-02-24 08:10:17 51°13.664 2°55.961 128.6 0.1 183 -999
2011-02-24 08:10:22 51°13.664 2°55.961 128.6 -999 42 -999
2011-02-24 08:10:26 51°13.664 2°55.96 128.7 -999 265 -999
2011-02-24 08:10:31 51°13.664 2°55.96 128.7 -999 272 -999
2011-02-24 08:10:37 51°13.664 2°55.961 128.7 -999 357 -999
2011-02-24 08:10:42 51°13.664 2°55.96 128.7 -999 37 -999
2011-02-24 08:10:47 51°13.664 2°55.96 128.7 -999 219 -999
2011-02-24 08:10:52 51°13.664 2°55.96 128.7 -999 225 -999
2011-02-24 08:10:57 51°13.664 2°55.96 128.7 0.1 25 8.4
2011-02-24 08:11:02 51°13.664 2°55.96 128.7 -999 304 -999
2011-02-24 08:11:07 51°13.664 2°55.96 128.7 0.1 10 -999
2011-02-24 08:11:12 51°13.664 2°55.96 128.7 0.1 19 -999
2011-02-24 08:11:17 51°13.664 2°55.96 128.8 0.1 226 -999
2011-02-24 08:11:22 51°13.664 2°55.96 128.8 0.1 202 -999
2011-02-24 08:11:27 51°13.664 2°55.96 128.8 0.1 10 -999
2011-02-24 08:11:32 51°13.664 2°55.96 128.8 0.1 3 -999
2011-02-24 08:11:36 51°13.664 2°55.961 128.8 -999 350 -999
2011-02-24 08:11:42 51°13.664 2°55.961 128.8 -999 41 -999
2011-02-24 08:11:47 51°13.664 2°55.96 128.8 0.1 357 -999
2011-02-24 08:11:52 51°13.664 2°55.96 128.8 0.1 240 -999
2011-02-24 08:11:57 51°13.664 2°55.96 128.8 0.1 229 -999
2011-02-24 08:12:02 51°13.664 2°55.961 128.8 -999 226 -999
2011-02-24 08:12:07 51°13.664 2°55.961 128.8 0.1 38 -999
2011-02-24 08:12:12 51°13.664 2°55.961 128.8 0.1 27 -999
2011-02-24 08:12:16 51°13.664 2°55.96 128.8 -999 245 -999
2011-02-24 08:12:22 51°13.664 2°55.96 128.8 -999 235 -999
2011-02-24 08:12:27 51°13.664 2°55.961 128.8 -999 36 -999
2011-02-24 08:12:32 51°13.664 2°55.961 128.8 0.1 227 -999
2011-02-24 08:12:36 51°13.664 2°55.961 128.8 -999 95 -999
2011-02-24 08:12:42 51°13.664 2°55.961 128.8 -999 29 -999
2011-02-24 08:12:47 51°13.665 2°55.961 128.8 -999 246 -999
2011-02-24 08:12:52 51°13.665 2°55.961 128.8 -999 323 -999
2011-02-24 08:12:56 51°13.665 2°55.961 128.8 -999 321 -999
2011-02-24 08:13:01 51°13.665 2°55.961 128.8 0.1 359 -999
2011-02-24 08:13:06 51°13.665 2°55.961 128.8 -999 175 -999
2011-02-24 08:13:12 51°13.664 2°55.961 128.8 -999 145 -999
2011-02-24 08:13:17 51°13.665 2°55.96 128.8 0.1 226 8.6
2011-02-24 08:13:22 51°13.665 2°55.961 128.8 -999 341 -999
2011-02-24 08:13:27 51°13.665 2°55.961 128.8 0.1 10 -999
2011-02-24 08:13:32 51°13.665 2°55.96 128.8 0.1 308 -999
2011-02-24 08:13:37 51°13.665 2°55.961 128.8 -999 334 -999
2011-02-24 08:13:42 51°13.665 2°55.96 128.8 -999 307 -999
2011-02-24 08:13:47 51°13.665 2°55.96 128.8 -999 252 -999
2011-02-24 08:13:52 51°13.665 2°55.96 128.8 -999 240 -999
2011-02-24 08:13:57 51°13.665 2°55.96 128.8 0.1 248 -999
2011-02-24 08:14:02 51°13.665 2°55.96 128.8 -999 261 -999
2011-02-24 08:14:07 51°13.664 2°55.96 128.8 0.1 235 -999
2011-02-24 08:14:12 51°13.665 2°55.961 128.8 -999 175 -999
2011-02-24 08:14:17 51°13.665 2°55.961 128.8 0.2 24 -999
2011-02-24 08:14:22 51°13.664 2°55.961 128.8 -999 235 -999
2011-02-24 08:14:27 51°13.664 2°55.96 128.7 -999 57 -999
2011-02-24 08:14:32 51°13.664 2°55.96 128.7 -999 275 -999
2011-02-24 08:14:37 51°13.664 2°55.96 128.7 0.1 215 -999
2011-02-24 08:14:42 51°13.664 2°55.96 128.7 -999 353 -999
2011-02-24 08:14:47 51°13.664 2°55.96 128.7 0.1 328 -999
2011-02-24 08:14:52 51°13.664 2°55.96 128.7 0.1 252 -999
2011-02-24 08:14:57 51°13.664 2°55.96 128.7 -999 342 -999
2011-02-24 08:15:02 51°13.664 2°55.961 128.7 0.1 3 -999
2011-02-24 08:15:07 51°13.664 2°55.961 128.7 -999 236 -999
2011-02-24 08:15:12 51°13.664 2°55.961 128.7 -999 215 -999
2011-02-24 08:15:17 51°13.664 2°55.961 128.7 0.1 47 -999
2011-02-24 08:15:22 51°13.664 2°55.961 128.7 0.1 42 -999
2011-02-24 08:15:27 51°13.664 2°55.961 128.7 -999 31 -999
2011-02-24 08:15:32 51°13.664 2°55.961 128.7 0.1 216 -999
2011-02-24 08:15:37 51°13.664 2°55.961 128.7 0.2 203 -999
2011-02-24 08:15:42 51°13.664 2°55.961 128.7 0.1 189 -999
2011-02-24 08:15:47 51°13.664 2°55.961 128.7 -999 214 -999
2011-02-24 08:15:52 51°13.664 2°55.961 128.7 0.1 15 -999
2011-02-24 08:15:57 51°13.664 2°55.961 128.7 -999 184 -999
2011-02-24 08:16:02 51°13.664 2°55.961 128.7 -999 216 -999
2011-02-24 08:16:07 51°13.664 2°55.961 128.7 -999 264 -999
2011-02-24 08:16:12 51°13.664 2°55.961 128.7 0.1 228 -999
2011-02-24 08:16:17 51°13.664 2°55.962 128.7 0.1 165 -999
2011-02-24 08:16:21 51°13.664 2°55.961 128.7 -999 343 -999
2011-02-24 08:16:27 51°13.664 2°55.961 128.7 0.1 227 -999
2011-02-24 08:16:31 51°13.664 2°55.962 128.7 -999 165 -999
2011-02-24 08:16:36 51°13.664 2°55.962 128.7 -999 194 -999
2011-02-24 08:16:41 51°13.664 2°55.962 128.7 0.1 182 -999
2011-02-24 08:16:46 51°13.664 2°55.961 128.7 -999 220 -999
2011-02-24 08:16:52 51°13.664 2°55.962 128.7 -999 80 -999
2011-02-24 08:16:57 51°13.664 2°55.962 128.7 0.3 31 -999
2011-02-24 08:17:02 51°13.664 2°55.961 128.7 0.1 318 -999
2011-02-24 08:17:06 51°13.664 2°55.961 128.7 0.1 310 -999
2011-02-24 08:17:12 51°13.664 2°55.961 128.7 -999 324 -999
2011-02-24 08:17:17 51°13.664 2°55.961 128.7 -999 8 -999
2011-02-24 08:17:22 51°13.664 2°55.961 128.7 -999 321 -999
2011-02-24 08:17:26 51°13.664 2°55.961 128.7 0.1 18 -999
2011-02-24 08:17:32 51°13.664 2°55.961 128.7 0.1 356 -999
2011-02-24 08:17:37 51°13.664 2°55.961 128.7 -999 47 -999
2011-02-24 08:17:42 51°13.664 2°55.962 128.7 0.1 41 -999
2011-02-24 08:17:46 51°13.664 2°55.961 128.7 0.1 8 -999
2011-02-24 08:17:52 51°13.663 2°55.961 128.7 0.2 224 -999
2011-02-24 08:17:56 51°13.664 2°55.961 128.7 0.1 46 -999
2011-02-24 08:18:02 51°13.664 2°55.961 128.7 0.1 24 -999
2011-02-24 08:18:06 51°13.664 2°55.961 128.7 0.1 259 -999
2011-02-24 08:18:11 51°13.664 2°55.962 128.7 0.1 34 -999
2011-02-24 08:18:17 51°13.664 2°55.962 128.7 0.2 32 -999
2011-02-24 08:18:22 51°13.664 2°55.962 128.7 -999 165 -999
2011-02-24 08:18:27 51°13.664 2°55.962 128.7 -999 167 -999
2011-02-24 08:18:32 51°13.664 2°55.962 128.7 0.1 211 -999
2011-02-24 08:18:37 51°13.664 2°55.962 128.7 0.1 52 -999
2011-02-24 08:18:42 51°13.664 2°55.962 128.7 -999 158 -999
2011-02-24 08:18:47 51°13.664 2°55.962 128.7 0.1 15 -999
2011-02-24 08:18:52 51°13.664 2°55.962 128.7 0.1 353 -999
2011-02-24 08:18:57 51°13.664 2°55.962 128.7 -999 242 -999
2011-02-24 08:19:02 51°13.664 2°55.962 128.7 0.1 36 -999
2011-02-24 08:19:07 51°13.664 2°55.962 128.7 0.2 35 -999
2011-02-24 08:19:12 51°13.664 2°55.962 128.7 -999 75 -999
2011-02-24 08:19:17 51°13.664 2°55.962 128.7 0.2 32 -999
2011-02-24 08:19:22 51°13.664 2°55.962 128.7 0.1 24 -999
2011-02-24 08:19:27 51°13.664 2°55.962 128.7 0.2 48 -999
2011-02-24 08:19:32 51°13.664 2°55.961 128.7 0.1 257 -999